Pagina principale
METAR-TAF:

METAR-TAF

Aeroporti :

Aeroporto di Spalato-Castelli

Spalato, Croazia

latitudine: 43-32N, longitudine: 016-18E, altezza: 19 m

Osservazione

Il bollettino è stato emesso 10 minuti fa, alle 10:30 UTC
Vento 2 kt da direzioni variabili
Temperature 23°C
Umidità 38%
Pressione 1019 hPa
Visibilità 10 km o più
nessuna nube inferiore a 1500 m e nessun cumulonembo

METAR: LDSP 151030Z VRB02KT CAVOK 23/08 Q1019 NOSIG

Ora: 12:40 (10:40 UTC)

Previsione

Il bollettino è stato emesso 5 ore e 15 minuti fa, alle 05:25 UTC
Previsione valida dal 15 alle 06 UTC al 16 alle 06 UTC
Vento 2 kt da direzioni variabili
Visibilità 10 km o più
nessuna nube inferiore a 1500 m e nessun cumulonembo

TAF: LDSP 150525Z 1506/1606 VRB02KT CAVOK TX23/1512Z TN16/1603Z

Osservazioni e previsioni meteorologiche di più di 4000 aeroporti (messaggi METAR e TAF).

Le stazioni disponibili sono rappresentate dai dischi gialli e rossi sulla carta.

Puntare il mouse per vedere il nome della stazione.

Clicca sopra per visualizzare le osservazioni e previsioni meteorologiche.

Per cambiare la mappa : fare clic sui pulsanti verdi con una croce nera per ingrandire, il pulsante verde con un trattino per diminuire, o sulla freccia verde per le mappe adiacenti.


METAR-TAF: